Terminal Aerodrome Forecast
Issued by NWS

Home | Current Version | Previous Version | Text Only | Print | Product List | Glossary Off
Versions: 1 2 3 4 5 6 7 8 9 10 11 12 13 14 15 16 17

346
FTUS43 KUNR 221720
TAFGCC
TAF
KGCC 221720Z 2218/2318 08007KT P6SM BKN150
     FM222300 VRB11KT P6SM TSRA BKN050CB
     FM230600 19012KT P6SM SCT007 BKN040=

USA.gov is the U.S. government's official web portal to all federal, state and local government web resources and services.